createdAt,value
2022-08-17T00:04:33.992Z,9.4
2022-08-17T00:10:34.172Z,9.4
2022-08-17T00:16:55.313Z,9.5
2022-08-17T00:22:36.744Z,9.5
2022-08-17T00:28:34.109Z,9.5
2022-08-17T00:34:34.178Z,9.5
2022-08-17T00:40:40.610Z,9.5
2022-08-17T00:46:33.962Z,9.6
2022-08-17T00:52:34.966Z,9.6
2022-08-17T00:58:36.804Z,9.5
2022-08-17T01:04:35.113Z,9.6
2022-08-17T01:11:00.145Z,9.7
2022-08-17T01:16:35.143Z,9.7
2022-08-17T01:22:35.396Z,9.6
2022-08-17T01:28:54.437Z,9.6
2022-08-17T01:34:42.903Z,9.6
2022-08-17T01:40:34.357Z,9.6
2022-08-17T01:46:34.542Z,9.8
2022-08-17T01:52:34.599Z,9.8
2022-08-17T01:58:34.813Z,9.8
2022-08-17T02:04:35.367Z,9.7
2022-08-17T02:10:34.356Z,9.7
2022-08-17T02:16:37.764Z,9.6
2022-08-17T02:22:35.508Z,9.3
2022-08-17T02:28:35.222Z,9.1
2022-08-17T02:34:34.038Z,8.8
2022-08-17T02:40:36.285Z,8.8
2022-08-17T02:46:33.964Z,8.7
2022-08-17T02:52:42.722Z,8.7
2022-08-17T02:58:36.076Z,8.8
2022-08-17T03:04:35.164Z,8.8
2022-08-17T03:10:34.060Z,8.7
2022-08-17T03:16:36.103Z,8.6
2022-08-17T03:22:38.388Z,8.5
2022-08-17T03:28:34.743Z,8.5
2022-08-17T03:34:34.273Z,8.5
2022-08-17T03:40:34.639Z,8.3
2022-08-17T03:46:35.655Z,8.2
2022-08-17T03:52:36.032Z,8.2
2022-08-17T03:58:34.504Z,8.3
2022-08-17T04:04:34.149Z,8.2
2022-08-17T04:10:34.423Z,8.4
2022-08-17T04:16:34.226Z,8.3
2022-08-17T04:22:34.742Z,8.3
2022-08-17T04:28:34.272Z,8.4
2022-08-17T04:34:33.921Z,8.5
2022-08-17T04:40:34.711Z,8.5
2022-08-17T04:46:33.975Z,8.5
2022-08-17T04:52:53.782Z,8.5
2022-08-17T04:58:34.490Z,8.4
2022-08-17T05:04:35.405Z,8.5
2022-08-17T05:10:34.042Z,8.5
2022-08-17T05:16:35.179Z,8.6
2022-08-17T05:22:35.388Z,8.7
2022-08-17T05:28:34.482Z,8.7
2022-08-17T05:34:34.007Z,8.7
2022-08-17T05:40:34.405Z,8.8
2022-08-17T05:46:36.893Z,8.9
2022-08-17T05:52:34.301Z,9
2022-08-17T05:58:33.689Z,9.1
2022-08-17T06:04:33.706Z,9.1
2022-08-17T06:10:34.187Z,9
2022-08-17T06:16:34.775Z,9.1
2022-08-17T06:22:34.113Z,9.2
2022-08-17T06:28:33.833Z,9.1
2022-08-17T06:34:34.471Z,9.6
2022-08-17T06:40:34.684Z,9.9
2022-08-17T06:46:33.938Z,10
2022-08-17T06:52:46.962Z,10.1
2022-08-17T06:58:34.046Z,10.3
2022-08-17T07:04:33.971Z,9.9
2022-08-17T07:10:34.184Z,10
2022-08-17T07:16:33.991Z,10
2022-08-17T07:22:57.443Z,10.1
2022-08-17T07:28:34.033Z,10.2
2022-08-17T07:34:34.031Z,10.4
2022-08-17T07:40:35.083Z,10.7
2022-08-17T07:46:33.905Z,10.5
2022-08-17T07:52:48.472Z,10.6
2022-08-17T07:58:34.733Z,10.6
2022-08-17T08:05:02.065Z,10.6
2022-08-17T08:10:34.268Z,10.6
2022-08-17T08:16:34.261Z,10.5
2022-08-17T08:22:34.179Z,10.6
2022-08-17T08:28:33.722Z,10.5
2022-08-17T08:34:49.717Z,10.5
2022-08-17T08:40:33.779Z,10.5
2022-08-17T08:46:34.486Z,10.3
2022-08-17T08:52:33.771Z,10.2
2022-08-17T08:58:41.866Z,9.9
2022-08-17T09:04:49.996Z,9.9
2022-08-17T09:10:33.825Z,9.9
2022-08-17T09:16:33.963Z,9.7
2022-08-17T09:22:35.499Z,9.6
2022-08-17T09:28:33.952Z,9.5
2022-08-17T09:34:34.110Z,9.5
2022-08-17T09:40:34.932Z,9.3
2022-08-17T09:46:34.219Z,9.3
2022-08-17T09:52:33.841Z,9.2
2022-08-17T09:58:33.886Z,9.2
2022-08-17T10:04:33.746Z,9.2
2022-08-17T10:10:34.184Z,10
2022-08-17T10:16:34.534Z,10.1
2022-08-17T10:22:34.906Z,10.3
2022-08-17T10:28:33.933Z,10.4
2022-08-17T10:34:38.734Z,10.5
2022-08-17T10:40:33.743Z,10.5
2022-08-17T10:46:33.993Z,11
2022-08-17T10:52:34.065Z,11.4
2022-08-17T10:58:33.805Z,11
2022-08-17T11:04:33.919Z,11
2022-08-17T11:10:34.236Z,11
2022-08-17T11:16:34.494Z,11
2022-08-17T11:22:33.921Z,11
2022-08-17T11:28:34.329Z,11
2022-08-17T11:34:35.282Z,11.3
2022-08-17T11:40:34.072Z,11.3
2022-08-17T11:46:34.266Z,11.3
2022-08-17T11:52:33.813Z,11.3
2022-08-17T11:58:33.779Z,12.1
2022-08-17T12:04:33.806Z,12.4
2022-08-17T12:10:33.986Z,12.2
2022-08-17T12:16:35.859Z,12.6
2022-08-17T12:22:35.341Z,12.5
2022-08-17T12:28:33.940Z,12.8
2022-08-17T12:34:35.607Z,13.1
2022-08-17T12:40:35.010Z,13
2022-08-17T12:46:34.555Z,13.2
2022-08-17T12:52:34.335Z,13.1
2022-08-17T12:58:37.333Z,13.6
2022-08-17T13:04:35.551Z,13.9
2022-08-17T13:10:36.557Z,13.5
2022-08-17T13:16:34.575Z,13.9
2022-08-17T13:22:35.910Z,13.9
2022-08-17T13:28:36.043Z,13.9
2022-08-17T13:34:33.911Z,14.4
2022-08-17T13:40:33.911Z,14.4
2022-08-17T13:46:33.965Z,14.4
2022-08-17T13:52:34.775Z,14.4
2022-08-17T13:58:34.242Z,12.8
2022-08-17T14:04:37.611Z,13.1
2022-08-17T14:10:34.284Z,13.1
2022-08-17T14:16:34.883Z,13.3
2022-08-17T14:22:35.192Z,13
2022-08-17T14:28:36.400Z,13
2022-08-17T14:34:35.150Z,12.6
2022-08-17T14:40:34.816Z,12.6
2022-08-17T14:46:35.859Z,12.4
2022-08-17T14:52:34.752Z,12.7
2022-08-17T14:58:35.557Z,12.6
2022-08-17T15:04:34.646Z,14.4
2022-08-17T15:10:34.202Z,15.1
2022-08-17T15:16:34.509Z,15.6
2022-08-17T15:22:34.701Z,16.5
2022-08-17T15:28:34.175Z,17.1
2022-08-17T15:34:35.812Z,18.2
2022-08-17T15:40:36.814Z,19.1
2022-08-17T15:46:35.318Z,19.5
2022-08-17T15:52:35.745Z,20.5
2022-08-17T15:58:36.096Z,20.6
2022-08-17T16:04:34.694Z,21
2022-08-17T16:10:36.006Z,22
2022-08-17T16:16:35.024Z,22.3
2022-08-17T16:22:34.180Z,22.5
2022-08-17T16:28:36.461Z,22.8
2022-08-17T16:34:34.547Z,20.3
2022-08-17T16:40:41.554Z,19.6
2022-08-17T16:46:38.343Z,20.7
2022-08-17T16:52:35.575Z,21.3
2022-08-17T16:58:36.476Z,21.3
2022-08-17T17:04:35.322Z,22.8
2022-08-17T17:10:33.976Z,22.8
2022-08-17T17:16:34.087Z,21.2
2022-08-17T17:22:33.960Z,18.9
2022-08-17T17:28:33.878Z,18.9
2022-08-17T17:34:34.995Z,22.2
2022-08-17T17:40:34.778Z,21.6
2022-08-17T17:46:34.244Z,18
2022-08-17T17:52:34.728Z,17
2022-08-17T17:58:34.448Z,14.9
2022-08-17T18:04:33.862Z,13.5
2022-08-17T18:10:34.012Z,13.5
2022-08-17T18:16:33.901Z,12.4
2022-08-17T18:22:34.398Z,12
2022-08-17T18:28:34.229Z,11.5
2022-08-17T18:34:47.223Z,11.2
2022-08-17T18:40:35.125Z,11.2
2022-08-17T18:46:34.534Z,11
2022-08-17T18:52:34.067Z,10.7
2022-08-17T18:58:34.412Z,10.3
2022-08-17T19:04:35.161Z,10.3
2022-08-17T19:10:46.210Z,9.9
2022-08-17T19:16:35.453Z,9.9
2022-08-17T19:22:34.460Z,9.9
2022-08-17T19:28:36.077Z,9.8
2022-08-17T19:34:35.546Z,9.6
2022-08-17T19:46:35.618Z,9.5
2022-08-17T19:52:33.938Z,9.4
2022-08-17T19:58:34.086Z,9.4
2022-08-17T20:04:34.204Z,9.1
2022-08-17T20:10:35.889Z,9.1
2022-08-17T20:16:36.402Z,9
2022-08-17T20:22:36.901Z,8.8
2022-08-17T20:28:34.080Z,8.8
2022-08-17T20:34:37.505Z,8.6
2022-08-17T20:40:34.735Z,8.5
2022-08-17T20:46:34.577Z,8.4
2022-08-17T20:52:34.172Z,8.3
2022-08-17T20:58:33.965Z,8.3
2022-08-17T21:04:33.880Z,8.2
2022-08-17T21:10:34.042Z,8.2
2022-08-17T21:16:33.900Z,8.2
2022-08-17T21:22:33.962Z,8.2
2022-08-17T21:28:34.583Z,8
2022-08-17T21:34:33.945Z,8
2022-08-17T21:40:34.434Z,8
2022-08-17T21:46:35.345Z,7.8
2022-08-17T21:52:34.222Z,7.7
2022-08-17T21:58:34.529Z,7.7
2022-08-17T22:04:34.284Z,7.6
2022-08-17T22:10:34.685Z,7.5
2022-08-17T22:16:34.601Z,7.4
2022-08-17T22:22:35.140Z,7.4
2022-08-17T22:28:34.506Z,7.2
2022-08-17T22:34:33.963Z,7.2
2022-08-17T22:40:33.984Z,7.2
2022-08-17T22:46:34.082Z,7.1
2022-08-17T22:52:34.842Z,7.1
2022-08-17T22:58:34.611Z,6.9
2022-08-17T23:04:34.144Z,6.9
2022-08-17T23:10:34.736Z,6.9
2022-08-17T23:16:36.678Z,6.7
2022-08-17T23:22:34.376Z,6.8
2022-08-17T23:28:34.244Z,6.7
2022-08-17T23:34:34.773Z,6.7
2022-08-17T23:40:39.333Z,6.7
2022-08-17T23:46:35.497Z,6.6
2022-08-17T23:52:35.075Z,6.6
2022-08-17T23:58:35.779Z,6.6
